Time;durP1;ratioP1;P1;durP2;ratioP2;P2;SDS_P1;SDS_P2;PMS_P1;PMS_P2;Temp;Humidity;BMP_temperature;BMP_pressure;BME280_temperature;BME280_humidity;BME280_pressure;Samples;Min_cycle;Max_cycle;Signal;HPM_P1;HPM_P2
2024/03/10 00:00:14;;;;;;;19.20;8.80;;;;;;;3.77;46.44;99570.16;79321;1300;3011491;-59
2024/03/10 00:02:46;;;;;;;15.30;8.10;;;;;;;3.72;46.44;99569.30;78239;1300;3051685;-63
2024/03/10 00:05:13;;;;;;;25.90;10.20;;;;;;;3.64;46.69;99569.89;79298;1300;3013716;-62
2024/03/10 00:07:41;;;;;;;19.40;8.70;;;;;;;3.63;46.74;99569.40;78105;1301;3026530;-62
2024/03/10 00:10:09;;;;;;;18.50;9.30;;;;;;;3.66;46.78;99569.99;79475;1295;3018811;-62
2024/03/10 00:12:36;;;;;;;24.10;9.50;;;;;;;3.65;46.46;99569.15;79606;1296;3011787;-60
2024/03/10 00:15:04;;;;;;;20.00;8.80;;;;;;;3.58;46.44;99566.95;78103;1296;3052434;-62
2024/03/10 00:17:32;;;;;;;17.20;8.20;;;;;;;3.55;46.34;99563.21;79550;1301;3011651;-59
2024/03/10 00:19:58;;;;;;;20.40;9.30;;;;;;;3.56;46.49;99564.40;79264;1301;3011954;-62
2024/03/10 00:22:26;;;;;;;23.30;10.30;;;;;;;3.48;46.67;99561.20;77994;1299;3068791;-60
2024/03/10 00:24:53;;;;;;;17.50;9.20;;;;;;;3.47;46.84;99556.88;79132;1298;3013355;-61
2024/03/10 00:27:19;;;;;;;21.10;9.90;;;;;;;3.40;46.82;99553.80;79101;1301;3013470;-61
2024/03/10 00:29:47;;;;;;;21.90;9.50;;;;;;;3.41;46.98;99550.32;77914;1301;3026071;-61
2024/03/10 00:32:14;;;;;;;20.10;9.90;;;;;;;3.40;46.71;99549.11;79604;1298;3013576;-60
2024/03/10 00:34:42;;;;;;;19.20;10.80;;;;;;;3.37;46.82;99547.67;80067;1298;3011685;-61
2024/03/10 00:37:11;;;;;;;26.80;11.70;;;;;;;3.31;47.12;99545.05;77896;1301;3068178;-62
2024/03/10 00:39:37;;;;;;;24.60;9.90;;;;;;;3.32;47.29;99551.77;79452;1298;3013263;-61
2024/03/10 00:42:05;;;;;;;17.00;9.10;;;;;;;3.24;47.55;99556.36;79061;1298;3011706;-61
2024/03/10 00:44:34;;;;;;;20.50;8.10;;;;;;;3.27;47.54;99554.19;77898;1301;3053468;-60
2024/03/10 00:47:00;;;;;;;17.20;8.70;;;;;;;3.30;47.42;99552.20;79087;1301;3012919;-62
2024/03/10 00:49:27;;;;;;;18.60;7.70;;;;;;;3.34;47.54;99548.98;79343;1297;3011658;-60
2024/03/10 00:51:56;;;;;;;18.70;7.30;;;;;;;3.42;47.16;99545.61;78164;1301;3025270;-63
2024/03/10 00:54:22;;;;;;;16.10;8.10;;;;;;;3.42;47.05;99539.02;79876;1301;3013259;-61
2024/03/10 00:56:49;;;;;;;15.50;7.30;;;;;;;3.46;47.08;99542.37;79352;1301;3013064;-59
2024/03/10 00:59:17;;;;;;;22.90;8.10;;;;;;;3.52;46.80;99544.10;78010;1301;3026250;-60
2024/03/10 01:01:45;;;;;;;17.20;8.00;;;;;;;3.58;46.55;99546.52;79247;1300;3013264;-62
2024/03/10 01:04:12;;;;;;;14.50;7.40;;;;;;;3.61;46.58;99545.73;79184;1301;3011947;-63
2024/03/10 01:06:40;;;;;;;15.90;6.80;;;;;;;3.67;46.64;99542.23;77875;1303;3068242;-59
2024/03/10 01:09:08;;;;;;;14.80;7.70;;;;;;;3.72;46.26;99543.65;79575;1301;3012857;-59
2024/03/10 01:11:39;;;;;;;15.90;8.00;;;;;;;3.74;46.29;99541.36;79790;1296;3013188;-59
2024/03/10 01:14:06;;;;;;;18.20;7.50;;;;;;;3.75;46.37;99540.79;78269;1302;3053210;-62
2024/03/10 01:16:33;;;;;;;16.50;8.00;;;;;;;3.80;46.29;99543.77;79236;1301;3013225;-61
2024/03/10 01:19:00;;;;;;;16.60;8.20;;;;;;;3.78;46.17;99544.48;79336;1300;3011969;-61
2024/03/10 01:21:27;;;;;;;19.00;8.30;;;;;;;3.79;46.33;99544.30;77913;1299;3028609;-61
2024/03/10 01:23:54;;;;;;;19.30;8.10;;;;;;;3.82;46.28;99541.80;79125;1299;3013602;-61
2024/03/10 01:26:20;;;;;;;18.90;8.30;;;;;;;3.85;46.25;99541.33;79368;1301;3011948;-59
2024/03/10 01:28:48;;;;;;;18.50;8.80;;;;;;;3.85;46.31;99542.04;78017;1301;3028246;-59
2024/03/10 01:31:15;;;;;;;19.20;9.40;;;;;;;3.80;46.23;99539.60;79265;1301;3013128;-58
2024/03/10 01:33:42;;;;;;;20.50;8.90;;;;;;;3.78;46.36;99535.00;79210;1300;3011738;-60
2024/03/10 01:36:09;;;;;;;18.10;8.60;;;;;;;3.78;46.20;99530.65;78053;1300;3028455;-60
2024/03/10 01:38:37;;;;;;;18.20;8.60;;;;;;;3.80;46.27;99530.59;79284;1301;3013681;-64
2024/03/10 01:41:03;;;;;;;22.00;8.40;;;;;;;3.80;46.32;99525.38;79187;1298;3011851;-60
2024/03/10 01:43:32;;;;;;;19.40;8.70;;;;;;;3.77;46.32;99523.59;78100;1301;3025902;-60
2024/03/10 01:46:06;;;;;;;22.80;9.90;;;;;;;3.75;46.45;99522.42;79244;1301;3018734;-58
2024/03/10 01:48:37;;;;;;;19.90;7.60;;;;;;;3.74;46.46;99519.33;77877;1301;3052524;-60
2024/03/10 01:51:07;;;;;;;18.90;8.60;;;;;;;3.68;46.64;99513.45;79109;1304;3011886;-58
2024/03/10 01:53:37;;;;;;;22.70;8.90;;;;;;;3.66;46.69;99513.01;77976;1301;3051524;-61
2024/03/10 01:56:04;;;;;;;19.60;8.30;;;;;;;3.56;46.93;99507.44;79220;1298;3012955;-59
2024/03/10 01:58:31;;;;;;;20.10;8.60;;;;;;;3.52;46.99;99505.45;79085;1297;3013169;-61
2024/03/10 02:01:03;;;;;;;21.00;8.70;;;;;;;3.52;46.91;99504.77;77945;1301;3053280;-59
2024/03/10 02:03:30;;;;;;;23.60;9.30;;;;;;;3.59;47.00;99505.09;79255;1299;3011460;-58
2024/03/10 02:05:58;;;;;;;18.50;9.00;;;;;;;3.57;46.99;99502.75;77937;1301;3028833;-59
2024/03/10 02:08:26;;;;;;;24.60;9.00;;;;;;;3.52;47.09;99502.52;79124;1301;3013101;-61
2024/03/10 02:10:53;;;;;;;15.40;8.20;;;;;;;3.51;47.10;99501.16;79292;1299;3011577;-59
2024/03/10 02:13:22;;;;;;;20.60;8.90;;;;;;;3.49;47.35;99500.17;77838;1302;3056744;-60
2024/03/10 02:16:01;;;;;;;20.40;8.80;;;;;;;3.43;47.48;99501.44;79556;1299;3011369;-61
2024/03/10 02:18:29;;;;;;;23.50;9.50;;;;;;;3.42;47.61;99501.27;77978;1301;3050431;-62
2024/03/10 02:20:57;;;;;;;21.80;9.70;;;;;;;3.43;47.40;99495.53;79450;1299;3011232;-59
2024/03/10 02:23:40;;;;;;;18.80;9.00;;;;;;;3.46;47.37;99490.42;79113;1300;3011887;-59
2024/03/10 02:26:09;;;;;;;19.90;10.00;;;;;;;3.32;47.64;99494.65;78012;1298;3051717;-61
2024/03/10 02:28:46;;;;;;;18.00;9.50;;;;;;;3.29;47.81;99491.63;79601;1294;3013111;-61
2024/03/10 02:48:00;;;;;;;19.40;8.30;;;;;;;3.22;48.26;99483.70;78101;1298;3057292;-59
2024/03/10 02:50:27;;;;;;;18.90;7.90;;;;;;;3.26;47.93;99490.19;79345;1295;3012821;-60
2024/03/10 02:52:53;;;;;;;17.90;7.80;;;;;;;3.27;48.01;99495.66;79470;1298;3011693;-61
2024/03/10 02:55:21;;;;;;;15.10;7.50;;;;;;;3.21;48.19;99495.67;78184;1301;3051102;-59
2024/03/10 02:57:48;;;;;;;17.50;8.80;;;;;;;3.14;48.43;99488.80;79325;1299;3013216;-61
2024/03/10 03:00:15;;;;;;;17.90;8.40;;;;;;;3.18;48.37;99488.67;79632;1300;3013031;-60
2024/03/10 03:02:44;;;;;;;21.00;9.00;;;;;;;3.24;48.33;99487.46;78128;1296;3058937;-59
2024/03/10 03:05:11;;;;;;;18.50;8.30;;;;;;;3.25;48.37;99479.98;79532;1296;3012856;-61
2024/03/10 03:07:37;;;;;;;19.90;9.50;;;;;;;3.28;48.29;99478.31;79480;1299;3013035;-61
2024/03/10 03:10:06;;;;;;;26.10;10.90;;;;;;;3.29;48.50;99489.20;78458;1300;3026558;-60
2024/03/10 03:12:33;;;;;;;23.70;11.00;;;;;;;3.27;48.73;99488.05;79428;1298;3012894;-60
2024/03/10 03:14:59;;;;;;;23.70;12.00;;;;;;;3.26;48.80;99482.02;79269;1296;3011587;-62
2024/03/10 03:17:27;;;;;;;34.90;19.30;;;;;;;3.24;48.98;99483.65;78090;1302;3056511;-61
2024/03/10 03:19:54;;;;;;;31.70;16.50;;;;;;;3.20;49.29;99484.13;79485;1301;3013413;-62
2024/03/10 03:22:21;;;;;;;30.70;16.80;;;;;;;3.18;49.41;99477.93;79392;1296;3011895;-63
2024/03/10 03:24:50;;;;;;;22.60;12.70;;;;;;;3.14;49.37;99483.43;78101;1301;3052355;-63
2024/03/10 03:27:16;;;;;;;22.10;10.80;;;;;;;3.10;48.78;99477.48;79297;1301;3020719;-60
2024/03/10 03:29:43;;;;;;;24.80;10.30;;;;;;;3.08;48.94;99474.43;79267;1298;3011370;-61
2024/03/10 03:32:11;;;;;;;23.50;9.30;;;;;;;3.00;49.21;99471.88;78046;1308;3028430;-57
2024/03/10 03:34:38;;;;;;;21.30;10.00;;;;;;;2.91;49.28;99468.16;79502;1298;3020918;-61
2024/03/10 03:37:06;;;;;;;16.10;8.30;;;;;;;2.78;49.61;99471.15;79348;1295;3011579;-59
2024/03/10 03:39:35;;;;;;;19.10;9.00;;;;;;;2.60;49.92;99481.85;78271;1298;3051799;-58
2024/03/10 03:42:02;;;;;;;16.10;8.20;;;;;;;2.52;50.06;99476.35;79452;1299;3013422;-63
2024/03/10 03:44:29;;;;;;;21.60;9.30;;;;;;;2.71;50.16;99468.23;79456;1297;3011796;-60
2024/03/10 03:46:58;;;;;;;20.60;9.40;;;;;;;2.74;50.26;99463.47;78086;1301;3056880;-59
2024/03/10 03:49:25;;;;;;;24.30;10.10;;;;;;;2.60;50.78;99475.10;79324;1297;3013240;-59
2024/03/10 03:51:52;;;;;;;21.40;9.80;;;;;;;2.66;50.80;99474.75;79340;1295;3011432;-65
2024/03/10 03:54:20;;;;;;;19.80;9.50;;;;;;;2.72;50.57;99467.70;78361;1296;3052429;-57
2024/03/10 03:56:47;;;;;;;25.10;9.50;;;;;;;2.65;50.69;99474.61;79310;1298;3013486;-57
2024/03/10 03:59:13;;;;;;;22.20;9.80;;;;;;;2.72;50.58;99473.73;79286;1301;3011545;-61
2024/03/10 04:01:42;;;;;;;17.50;9.20;;;;;;;2.80;50.53;99471.09;78057;1298;3028808;-58
2024/03/10 04:04:08;;;;;;;20.30;9.50;;;;;;;2.75;50.77;99475.54;79453;1301;3013206;-60
2024/03/10 04:06:35;;;;;;;21.50;9.50;;;;;;;2.70;50.80;99472.23;79422;1301;3013465;-61
2024/03/10 04:09:03;;;;;;;23.20;9.60;;;;;;;2.58;51.33;99473.92;78017;1300;3052586;-62
2024/03/10 04:11:30;;;;;;;23.60;11.20;;;;;;;2.54;51.55;99475.81;79186;1299;3011685;-58
2024/03/10 04:13:57;;;;;;;19.90;10.60;;;;;;;2.56;51.35;99470.22;79166;1299;3012116;-62
2024/03/10 04:16:25;;;;;;;19.70;10.20;;;;;;;2.46;51.67;99468.58;78132;1298;3055506;-59
2024/03/10 04:18:52;;;;;;;27.40;12.10;;;;;;;2.47;51.48;99471.13;79475;1298;3014079;-59
2024/03/10 04:21:18;;;;;;;26.60;11.20;;;;;;;2.27;52.31;99482.40;79336;1302;3011615;-63
2024/03/10 04:23:46;;;;;;;24.70;10.70;;;;;;;2.28;52.30;99472.69;78082;1301;3028080;-57
2024/03/10 04:26:12;;;;;;;20.10;10.70;;;;;;;2.33;51.70;99478.59;79351;1302;3012933;-61
2024/03/10 04:28:39;;;;;;;28.50;10.10;;;;;;;2.25;52.25;99479.32;79640;1299;3011583;-61
2024/03/10 04:31:07;;;;;;;22.40;10.70;;;;;;;2.11;52.29;99489.71;78460;1295;3027982;-60
2024/03/10 04:33:34;;;;;;;21.30;10.00;;;;;;;2.15;52.56;99488.05;79543;1299;3013236;-60
2024/03/10 04:36:01;;;;;;;21.70;9.90;;;;;;;2.26;52.21;99482.40;79378;1294;3012066;-61
2024/03/10 04:38:29;;;;;;;25.90;10.20;;;;;;;2.30;52.28;99482.31;78102;1297;3053358;-61
2024/03/10 04:40:57;;;;;;;22.10;10.90;;;;;;;2.27;52.19;99482.56;79319;1298;3013864;-62
2024/03/10 04:43:24;;;;;;;34.40;10.50;;;;;;;2.21;52.05;99479.77;79357;1295;3012792;-60
2024/03/10 04:45:53;;;;;;;23.90;10.10;;;;;;;2.15;52.49;99482.17;78206;1298;3057234;-61
2024/03/10 04:48:20;;;;;;;26.70;10.50;;;;;;;2.10;52.46;99488.17;79334;1298;3013286;-59
2024/03/10 04:50:46;;;;;;;22.60;10.40;;;;;;;2.08;52.45;99490.14;79240;1301;3011620;-61
2024/03/10 04:53:16;;;;;;;19.30;9.90;;;;;;;2.07;52.66;99493.45;78072;1301;3053658;-58
2024/03/10 04:55:43;;;;;;;18.30;9.70;;;;;;;2.05;53.08;99496.79;79514;1301;3013218;-58
2024/03/10 04:58:10;;;;;;;32.00;10.80;;;;;;;1.98;53.39;99504.89;79273;1296;3011831;-62
2024/03/10 05:00:38;;;;;;;23.70;10.80;;;;;;;2.00;53.06;99502.95;78169;1300;3057357;-58
2024/03/10 05:03:05;;;;;;;21.00;10.60;;;;;;;1.91;53.41;99496.96;79700;1295;3013862;-60
2024/03/10 05:05:32;;;;;;;20.00;10.50;;;;;;;1.92;53.62;99501.42;79326;1295;3011735;-60
2024/03/10 05:08:00;;;;;;;21.60;11.70;;;;;;;1.91;53.71;99501.27;78162;1298;3051587;-62
2024/03/10 05:10:27;;;;;;;22.20;11.20;;;;;;;2.00;53.32;99496.23;79419;1298;3013402;-60
2024/03/10 05:12:53;;;;;;;24.50;11.50;;;;;;;1.93;53.28;99498.98;79448;1298;3011569;-59
2024/03/10 05:15:21;;;;;;;23.10;11.40;;;;;;;1.93;53.78;99500.70;78052;1294;3027141;-61
2024/03/10 05:17:48;;;;;;;29.10;13.00;;;;;;;1.86;53.96;99502.77;79485;1295;3013401;-59
2024/03/10 05:20:15;;;;;;;30.90;14.90;;;;;;;1.80;54.10;99499.45;79295;1298;3011629;-60
2024/03/10 05:22:43;;;;;;;30.60;13.70;;;;;;;1.88;54.08;99503.77;78129;1295;3026065;-61
2024/03/10 05:25:13;;;;;;;32.70;13.50;;;;;;;1.97;53.84;99500.44;79414;1298;3014043;-60
2024/03/10 05:27:41;;;;;;;45.20;18.60;;;;;;;2.09;53.20;99505.85;78118;1297;3051486;-60
2024/03/10 05:30:09;;;;;;;47.80;16.90;;;;;;;2.06;53.48;99505.73;79455;1298;3013722;-62
2024/03/10 05:32:38;;;;;;;35.80;16.70;;;;;;;2.17;53.35;99503.23;79562;1308;3011453;-60
2024/03/10 05:35:08;;;;;;;35.60;14.00;;;;;;;2.22;53.13;99507.23;78196;1298;3049974;-60
2024/03/10 05:37:36;;;;;;;31.20;13.70;;;;;;;2.32;53.09;99511.83;79540;1298;3013337;-61
2024/03/10 05:40:06;;;;;;;27.50;13.10;;;;;;;2.38;52.79;99511.34;78811;1300;3011849;-64
2024/03/10 05:42:33;;;;;;;31.80;12.70;;;;;;;2.43;52.93;99517.23;79405;1299;3013276;-61
2024/03/10 05:45:03;;;;;;;35.40;14.10;;;;;;;2.41;53.49;99514.71;79479;1296;3011563;-60
2024/03/10 05:47:32;;;;;;;34.30;13.60;;;;;;;2.56;52.59;99515.70;78097;1301;3050061;-59
2024/03/10 05:49:59;;;;;;;30.80;15.10;;;;;;;2.54;52.96;99516.59;79744;1301;3012806;-59
2024/03/10 05:52:26;;;;;;;38.10;15.00;;;;;;;2.62;52.72;99519.33;79435;1296;3011895;-61
2024/03/10 05:54:54;;;;;;;34.20;13.50;;;;;;;2.68;53.02;99517.60;78124;1301;3051563;-61
2024/03/10 05:57:21;;;;;;;31.80;14.20;;;;;;;2.76;52.34;99517.04;79352;1301;3020395;-61
2024/03/10 05:59:47;;;;;;;40.90;17.40;;;;;;;2.80;52.34;99520.56;79411;1300;3012904;-60
2024/03/10 06:02:16;;;;;;;34.30;16.60;;;;;;;2.88;52.11;99522.09;78030;1300;3027757;-59
2024/03/10 06:04:44;;;;;;;42.50;17.00;;;;;;;2.98;52.08;99521.98;79587;1295;3013537;-60
2024/03/10 06:07:11;;;;;;;27.40;15.20;;;;;;;2.94;52.00;99527.44;80017;1294;3011834;-60
2024/03/10 06:09:39;;;;;;;32.60;14.40;;;;;;;3.05;51.92;99527.30;78383;1295;3052610;-59
2024/03/10 06:12:07;;;;;;;27.40;14.30;;;;;;;3.22;51.41;99530.27;79627;1298;3013310;-61
2024/03/10 06:14:33;;;;;;;29.70;13.40;;;;;;;3.15;51.47;99530.66;79340;1298;3011683;-61
2024/03/10 06:17:01;;;;;;;28.60;13.30;;;;;;;3.08;51.40;99533.44;78175;1297;3049819;-61
2024/03/10 06:27:48;;;;;;;36.40;14.90;;;;;;;3.22;51.36;99532.34;78244;1295;3068462;-62
2024/03/10 06:30:14;;;;;;;32.40;13.80;;;;;;;3.29;51.37;99530.76;79348;1297;3013449;-61
2024/03/10 06:32:42;;;;;;;34.60;14.50;;;;;;;3.34;51.03;99533.36;79418;1298;3011912;-62
2024/03/10 06:35:09;;;;;;;35.50;15.70;;;;;;;3.11;51.04;99534.58;78382;1295;3026723;-61
2024/03/10 06:37:36;;;;;;;36.50;14.90;;;;;;;3.15;51.26;99533.23;79356;1301;3013671;-61
2024/03/10 06:40:03;;;;;;;32.60;14.90;;;;;;;3.27;51.05;99535.84;79272;1295;3011731;-62
2024/03/10 06:42:32;;;;;;;38.60;14.70;;;;;;;3.30;51.05;99534.89;78241;1298;3068737;-60
2024/03/10 06:44:58;;;;;;;41.60;18.60;;;;;;;3.32;51.15;99535.87;79464;1295;3013261;-61
2024/03/10 06:47:26;;;;;;;42.70;17.20;;;;;;;3.31;51.27;99536.24;79347;1296;3012952;-62
2024/03/10 06:49:54;;;;;;;46.60;17.80;;;;;;;3.54;50.88;99536.08;78500;1295;3025643;-61
2024/03/10 06:52:21;;;;;;;49.60;19.30;;;;;;;3.65;50.44;99540.77;79305;1299;3013150;-62
2024/03/10 06:54:47;;;;;;;72.60;23.60;;;;;;;3.57;50.34;99543.77;79291;1307;3011781;-60
2024/03/10 06:57:15;;;;;;;60.10;22.00;;;;;;;3.56;50.58;99536.88;78144;1301;3027889;-62
2024/03/10 06:59:42;;;;;;;46.30;20.00;;;;;;;3.46;50.62;99543.42;79315;1295;3013055;-63
2024/03/10 07:02:12;;;;;;;44.70;17.60;;;;;;;3.46;50.92;99546.34;79244;1295;3014009;-61
2024/03/10 07:04:40;;;;;;;47.10;18.30;;;;;;;3.53;50.59;99550.48;78156;1301;3054049;-60
2024/03/10 07:07:08;;;;;;;40.90;18.20;;;;;;;3.53;50.36;99557.24;79402;1301;3013809;-60
2024/03/10 07:09:35;;;;;;;34.80;17.00;;;;;;;3.46;50.42;99551.70;79451;1301;3012948;-62
2024/03/10 07:12:03;;;;;;;38.50;15.50;;;;;;;3.56;50.19;99553.84;78039;1295;3067252;-63
2024/03/10 07:14:30;;;;;;;31.80;15.70;;;;;;;3.66;50.13;99555.30;79428;1295;3013034;-61
2024/03/10 07:16:57;;;;;;;36.10;15.00;;;;;;;3.79;49.93;99555.90;79403;1295;3013515;-60
2024/03/10 07:19:25;;;;;;;37.20;15.50;;;;;;;3.78;49.85;99566.00;78084;1301;3054205;-63
2024/03/10 07:21:52;;;;;;;37.60;14.70;;;;;;;3.75;49.93;99563.83;79272;1298;3013310;-62
2024/03/10 07:24:18;;;;;;;33.10;14.60;;;;;;;3.76;50.12;99559.47;79260;1298;3013308;-60
2024/03/10 07:26:47;;;;;;;29.40;14.70;;;;;;;3.96;49.79;99569.75;78024;1301;3027750;-63
2024/03/10 07:29:13;;;;;;;27.90;12.90;;;;;;;4.16;49.30;99563.57;79518;1294;3013564;-61
2024/03/10 07:31:40;;;;;;;35.10;15.10;;;;;;;4.25;48.86;99565.70;79564;1295;3012331;-59
2024/03/10 07:34:08;;;;;;;33.80;14.40;;;;;;;4.24;48.84;99556.05;78090;1298;3027549;-62
2024/03/10 07:36:35;;;;;;;32.50;13.50;;;;;;;4.41;48.53;99553.55;79562;1297;3013070;-62
2024/03/10 07:39:06;;;;;;;23.20;11.90;;;;;;;4.56;48.12;99554.44;79532;1298;3011939;-63
2024/03/10 07:41:33;;;;;;;27.10;12.50;;;;;;;4.50;48.02;99557.41;78189;1298;3067098;-64
2024/03/10 07:44:00;;;;;;;30.20;12.50;;;;;;;4.52;47.91;99557.17;79374;1296;3018347;-63
2024/03/10 07:46:27;;;;;;;31.20;11.80;;;;;;;4.64;47.59;99558.14;79563;1294;3012204;-62
2024/03/10 07:48:55;;;;;;;23.80;11.30;;;;;;;4.40;47.69;99567.27;78406;1296;3026844;-62
2024/03/10 07:51:23;;;;;;;25.30;11.50;;;;;;;4.31;48.21;99561.33;79322;1298;3020738;-60
2024/03/10 07:53:50;;;;;;;25.70;12.10;;;;;;;4.37;48.24;99556.99;79577;1299;3013075;-60
2024/03/10 07:56:19;;;;;;;24.70;11.00;;;;;;;4.51;48.02;99554.60;78240;1298;3069442;-62
2024/03/10 07:58:45;;;;;;;23.20;11.60;;;;;;;4.52;47.99;99558.21;79645;1299;3012596;-60
2024/03/10 08:01:12;;;;;;;28.60;12.50;;;;;;;4.67;48.00;99551.13;79969;1295;3011676;-61
2024/03/10 08:03:40;;;;;;;21.90;11.00;;;;;;;4.83;47.65;99548.14;78195;1298;3025554;-60
2024/03/10 08:06:07;;;;;;;26.60;12.40;;;;;;;5.05;47.06;99539.36;79349;1300;3013410;-61
2024/03/10 08:08:34;;;;;;;27.00;11.50;;;;;;;5.24;46.77;99543.13;79333;1298;3013977;-60
2024/03/10 08:11:03;;;;;;;25.40;9.70;;;;;;;5.40;46.27;99542.21;78214;1298;3026679;-61
2024/03/10 08:13:30;;;;;;;26.90;10.90;;;;;;;5.45;45.77;99549.30;79407;1296;3013060;-60
2024/03/10 08:15:59;;;;;;;23.70;9.90;;;;;;;5.34;45.72;99547.48;79321;1296;3011821;-62
2024/03/10 08:18:27;;;;;;;21.90;9.90;;;;;;;5.33;45.76;99545.41;78022;1296;3055066;-62
2024/03/10 08:20:54;;;;;;;15.10;8.30;;;;;;;5.48;45.45;99545.55;79577;1298;3012881;-63
2024/03/10 08:23:20;;;;;;;18.30;9.30;;;;;;;5.44;45.38;99543.11;79385;1298;3011941;-60
2024/03/10 08:25:49;;;;;;;19.20;9.20;;;;;;;5.72;45.08;99540.79;78638;1296;3028639;-63
2024/03/10 08:28:15;;;;;;;19.70;8.10;;;;;;;5.88;44.64;99540.36;79998;1295;3012502;-59
2024/03/10 08:30:42;;;;;;;14.40;7.60;;;;;;;5.95;44.42;99533.67;79620;1295;3011857;-61
2024/03/10 08:33:10;;;;;;;15.90;7.90;;;;;;;6.04;44.08;99533.98;78275;1295;3028386;-62
2024/03/10 08:35:40;;;;;;;14.90;7.20;;;;;;;6.25;43.75;99529.64;79334;1295;3013534;-63
2024/03/10 08:38:09;;;;;;;18.10;8.00;;;;;;;6.09;43.69;99538.11;78742;1294;3050272;-62
2024/03/10 08:40:35;;;;;;;14.20;7.70;;;;;;;6.08;43.60;99534.70;79343;1298;3015130;-64
2024/03/10 08:43:03;;;;;;;21.80;7.20;;;;;;;6.31;43.23;99534.10;79922;1295;3011507;-61
2024/03/10 08:45:31;;;;;;;19.40;8.20;;;;;;;6.23;43.08;99540.70;78747;1298;3049540;-62
2024/03/10 08:47:58;;;;;;;17.60;7.50;;;;;;;6.19;43.27;99537.39;79649;1295;3013345;-62
2024/03/10 08:50:25;;;;;;;16.10;8.00;;;;;;;6.32;43.16;99524.31;79757;1295;3012807;-64
2024/03/10 08:52:53;;;;;;;14.70;7.20;;;;;;;6.64;42.92;99529.91;78267;1298;3026977;-63
2024/03/10 08:55:20;;;;;;;10.80;6.20;;;;;;;6.66;42.50;99521.66;79518;1298;3018486;-62
2024/03/10 08:57:47;;;;;;;19.40;7.50;;;;;;;6.52;42.49;99529.23;79592;1295;3011806;-64
2024/03/10 09:00:17;;;;;;;16.00;6.50;;;;;;;6.39;42.75;99535.15;78576;1296;3026018;-61
2024/03/10 09:02:44;;;;;;;13.80;6.30;;;;;;;6.46;42.69;99537.83;79525;1298;3013211;-62
2024/03/10 09:05:15;;;;;;;11.30;6.10;;;;;;;6.60;42.67;99536.52;78975;1297;3013412;-62
2024/03/10 09:07:42;;;;;;;11.80;6.00;;;;;;;6.76;42.19;99538.09;79461;1296;3013173;-63
2024/03/10 09:10:09;;;;;;;14.30;6.20;;;;;;;6.79;42.02;99543.91;79829;1295;3011611;-60
2024/03/10 09:12:38;;;;;;;16.70;5.70;;;;;;;6.80;42.01;99545.06;78407;1296;3052166;-61
2024/03/10 09:15:06;;;;;;;12.40;6.10;;;;;;;6.83;41.79;99538.64;79338;1295;3013360;-62
2024/03/10 09:17:38;;;;;;;10.60;5.30;;;;;;;6.84;41.55;99530.44;78935;1298;3011868;-61
2024/03/10 09:20:11;;;;;;;12.30;5.30;;;;;;;6.70;41.72;99538.71;80225;1296;3014084;-64
2024/03/10 09:22:40;;;;;;;11.80;5.10;;;;;;;6.67;41.72;99539.04;78981;1295;3049676;-64
2024/03/10 09:25:20;;;;;;;14.40;6.10;;;;;;;6.72;41.56;99535.52;79549;1293;3013371;-62
2024/03/10 09:27:49;;;;;;;10.50;5.40;;;;;;;7.03;41.08;99529.61;78223;1298;3053143;-62
2024/03/10 09:30:17;;;;;;;8.70;5.30;;;;;;;7.34;40.84;99526.48;79371;1298;3013561;-60
2024/03/10 09:32:55;;;;;;;13.80;6.20;;;;;;;7.55;40.06;99527.39;78946;1295;3011559;-62
2024/03/10 09:35:35;;;;;;;16.20;5.60;;;;;;;7.74;39.73;99527.36;78652;1295;3056557;-59
2024/03/10 09:38:06;;;;;;;11.40;4.90;;;;;;;7.73;38.83;99538.24;78361;1298;3049436;-61
2024/03/10 09:40:33;;;;;;;12.10;5.30;;;;;;;7.67;38.91;99538.35;79733;1294;3011596;-66
2024/03/10 09:43:11;;;;;;;10.30;4.90;;;;;;;7.65;39.04;99536.52;79489;1298;3012318;-62
2024/03/10 09:45:46;;;;;;;8.40;4.80;;;;;;;7.81;38.71;99538.71;78119;1299;3051286;-61
2024/03/10 09:48:15;;;;;;;10.90;4.90;;;;;;;7.87;38.39;99540.89;79051;1298;3011609;-64
2024/03/10 09:50:48;;;;;;;9.80;4.80;;;;;;;7.63;38.36;99543.05;79329;1298;3013227;-61
2024/03/10 09:53:19;;;;;;;12.00;4.50;;;;;;;7.78;38.33;99533.46;79087;1294;3051325;-65
2024/03/10 09:55:49;;;;;;;14.40;5.10;;;;;;;8.06;37.94;99536.84;80559;1294;3011650;-67
2024/03/10 09:58:17;;;;;;;8.90;4.10;;;;;;;8.02;38.21;99534.38;78423;1295;3048830;-59
2024/03/10 10:00:45;;;;;;;10.80;4.00;;;;;;;8.02;37.85;99534.91;79490;1296;3013167;-62
2024/03/10 10:03:14;;;;;;;7.00;4.10;;;;;;;7.96;37.85;99538.52;79329;1296;3011805;-62
2024/03/10 10:05:44;;;;;;;9.30;4.00;;;;;;;7.72;37.97;99530.77;78225;1297;3052057;-63
2024/03/10 10:08:12;;;;;;;11.10;3.70;;;;;;;7.61;38.25;99538.45;79843;1295;3011810;-62
2024/03/10 10:10:43;;;;;;;7.60;3.30;;;;;;;7.66;38.37;99530.36;78628;1298;3027653;-61
2024/03/10 10:13:23;;;;;;;7.10;3.80;;;;;;;7.61;38.13;99524.69;80534;1294;3012644;-62
2024/03/10 10:15:53;;;;;;;13.80;3.90;;;;;;;7.59;38.19;99516.06;78299;1295;3049435;-62
2024/03/10 10:18:21;;;;;;;8.10;3.70;;;;;;;7.86;38.06;99506.57;79803;1300;3011548;-61
2024/03/10 10:20:53;;;;;;;8.10;3.10;;;;;;;8.21;37.54;99495.92;78460;1298;3025478;-59
2024/03/10 10:23:23;;;;;;;5.70;3.40;;;;;;;8.56;36.73;99494.55;79988;1298;3011390;-63
2024/03/10 10:25:52;;;;;;;7.50;2.80;;;;;;;8.84;36.23;99490.48;78538;1295;3052778;-63
2024/03/10 10:28:19;;;;;;;7.50;3.40;;;;;;;9.17;35.68;99488.19;79820;1294;3013017;-62
2024/03/10 10:30:46;;;;;;;8.70;3.60;;;;;;;9.39;35.38;99492.59;79378;1294;3011651;-61
2024/03/10 10:33:14;;;;;;;9.00;3.40;;;;;;;9.52;34.88;99487.48;78391;1297;3048663;-61
2024/03/10 10:35:45;;;;;;;9.20;3.50;;;;;;;9.22;35.12;99493.69;79586;1298;3012799;-63
2024/03/10 10:38:13;;;;;;;7.40;3.20;;;;;;;9.12;35.29;99491.77;78610;1298;3052882;-61
2024/03/10 10:40:41;;;;;;;9.10;3.60;;;;;;;9.27;35.04;99488.19;79656;1297;3012831;-62
2024/03/10 10:43:09;;;;;;;11.30;4.40;;;;;;;9.52;34.63;99482.23;79943;1295;3011452;-62
2024/03/10 10:45:36;;;;;;;11.30;4.40;;;;;;;9.68;34.60;99482.91;78340;1298;3057149;-62
2024/03/10 10:48:08;;;;;;;11.40;4.70;;;;;;;9.55;34.66;99486.45;79589;1295;3013090;-60
2024/03/10 10:50:38;;;;;;;8.60;3.80;;;;;;;9.35;34.90;99485.45;78119;1300;3050235;-62
2024/03/10 10:53:06;;;;;;;7.50;3.30;;;;;;;9.21;34.83;99486.41;79931;1298;3011941;-61
2024/03/10 10:55:34;;;;;;;11.00;3.90;;;;;;;9.24;34.94;99480.46;79154;1294;3025875;-65
2024/03/10 10:58:04;;;;;;;7.60;3.40;;;;;;;9.29;34.82;99483.70;79526;1300;3012770;-63
2024/03/10 11:00:33;;;;;;;8.00;4.00;;;;;;;9.21;34.82;99477.80;78744;1296;3011788;-62
2024/03/10 11:03:22;;;;;;;6.30;3.50;;;;;;;9.11;35.08;99481.52;79830;1295;3442178;-61
2024/03/10 11:06:15;;;;;;;7.90;3.30;;;;;;;9.07;35.15;99475.09;78558;1295;3053641;-62
2024/03/10 11:08:46;;;;;;;7.80;3.70;;;;;;;9.34;35.09;99471.86;78123;1297;3050287;-64
2024/03/10 11:11:16;;;;;;;17.50;4.10;;;;;;;9.24;34.88;99472.73;79211;1301;3012273;-61
2024/03/10 11:13:45;;;;;;;8.60;4.30;;;;;;;9.22;35.00;99468.52;78158;1298;3052967;-61
2024/03/10 11:16:23;;;;;;;9.50;4.60;;;;;;;9.29;34.92;99468.16;79380;1294;3015696;-61
2024/03/10 11:18:52;;;;;;;19.00;6.00;;;;;;;9.48;34.65;99470.02;78411;1293;3057213;-62
2024/03/10 11:21:22;;;;;;;16.00;5.90;;;;;;;9.23;34.78;99461.98;79253;1296;3011525;-61
2024/03/10 11:23:50;;;;;;;21.10;6.20;;;;;;;8.87;35.11;99468.67;78288;1296;3049236;-58
2024/03/10 11:26:21;;;;;;;12.70;5.80;;;;;;;8.87;35.15;99460.77;79431;1295;3013309;-62
2024/03/10 11:28:50;;;;;;;16.80;7.70;;;;;;;9.02;35.14;99453.89;78313;1295;3069563;-61
2024/03/10 11:31:35;;;;;;;21.90;7.60;;;;;;;9.27;34.82;99453.41;79649;1295;3013356;-61
2024/03/10 11:34:04;;;;;;;16.00;6.50;;;;;;;9.29;35.07;99458.69;78134;1297;3049721;-60
2024/03/10 11:36:36;;;;;;;14.90;6.10;;;;;;;9.20;35.04;99460.27;79723;1294;3011304;-63
2024/03/10 11:39:05;;;;;;;16.60;5.70;;;;;;;9.13;35.03;99456.60;78181;1298;3049644;-59
2024/03/10 11:41:32;;;;;;;11.50;5.30;;;;;;;8.98;35.29;99457.58;80056;1295;3014834;-61
2024/03/10 11:43:59;;;;;;;16.20;6.20;;;;;;;9.09;35.23;99455.05;79709;1297;3011600;-61